Pagrindinis puslapis
METAR-TAF:

METAR-TAF

Oro uostai :

Billund, Danija

platuma: 55-44N, ilguma: 009-10E, Aukštis: 75 m

Dabartinis oras

Ataskaita buvo paskelbta 38 minutes, ne 10:50 UTC
Vėjas 13 kt iš Pietų, svyruoja nuo Pietų/Pietryčių ir Pietvakarių
Temperatūra 21°C
Drėgmė 46%
Slėgis 1024 hPa
Matomumas 10 km arba daugiau

METAR: EKBI 221050Z AUTO 19013KT 160V230 9999 FEW050/// 21/09 Q1024

Laikas: 13:28 (11:28 UTC)

Prognozė

Ataskaita buvo paskelbta 59 minutes, ne 10:29 UTC
Prognozė galioja nuo 22 metu 10 UTC su 23 metu 06 UTC
Vėjas 12 kt iš Pietų/Pietvakarių
Matomumas 10 km arba daugiau
Išsisklaidę debesys ne aukštis 3000 ft
Laikinai
nuo 22 metu 10 UTC su 22 metu 16 UTC
Vėjas 15 kt iš Pietų/Pietvakarių su gūsio iki 25 kt
Tikimybė 40%
nuo 23 metu 00 UTC su 23 metu 06 UTC
Matomumas: 4000 m
rūkana

TAF: EKBI 221029Z 2210/2306 21012KT 9999 SCT030 TEMPO 2210/2216 21015G25KT PROB40 2300/2306 4000 BR

Orai ataskaitas ir orų prognozės (METAR, TAF).

turimą stotys yra geltonos ir raudonos taškus žemėlapyje.

Perkelti pele per norėdami pamatyti stoties vardą.

Tada spustelėkite, norėdami matyti oro stebėjimo ir prognozės.

Norėdami pakeisti žemėlapį: spustelėkite ant žalios mygtukų su juodo kryžiaus žemyn,; žalią mygtuką su brūkšneliu, jei norite nutolinti; arba žalių rodyklių gretimoms žemėlapius.


METAR-TAF: